Terminal Aerodrome Forecast
Issued by NWS Mt. Holly, NJ

Home | Current Version | Previous Version | Text Only | Print | Product List | Glossary On
Versions: 1 2 3 4 5 6 7 8 9 10 11 12 13 14 15 16 17 18 19 20
000
FTUS41 KPHI 021424 AAB
TAFACY
TAF AMD
KACY 021424Z 0214/0312 VRB03KT P6SM SCT009 BKN015
     FM021500 14004KT P6SM SCT015 BKN250
     FM021800 16009KT P6SM SCT060 BKN250
     FM022300 18005KT P6SM SCT250
     FM030300 VRB03KT 5SM BR FEW070
     FM030600 00000KT 1SM BR SCT003=

USA.gov is the U.S. government's official web portal to all federal, state and local government web resources and services.